Aviation Digital Data Service (ADDS)

Output produced by METARs form (1941 UTC 18 June 2019)
found at http://www.aviationweather.gov/metar/data/
 
EGAA 181920Z 14002KT 9999 BKN033 15/11 Q1010
TAF EGAA 181701Z 1818/1918 VRB04KT 9999 FEW025 
     TEMPO 1901/1908 FEW007 BKN010 
     PROB30 
     TEMPO 1902/1907 7000 BKN004 
     BECMG 1908/1912 25010KT 
     TEMPO 1911/1918 7000 SHRA 
     PROB30 
     TEMPO 1912/1918 4000 +SHRA
       
EGYE 181450Z 15007KT 9999 FEW030 BKN130 BKN250 ///// Q1013 RMK BLU
EGPL 181920Z AUTO 21017KT 9999 -RA BKN006/// BKN009/// BKN013/// 12/10 Q1006
TAF EGPL 181359Z 1815/1817 23018KT 9999 FEW010 SCT015 
     PROB40 
     TEMPO 1815/1817 5000 SHRA BKN010
       
EGUB 181850Z 07001KT 9999 -RA FEW010 BKN032 16/15 Q1011 TEMPO SCT013 RMK BLU TEMPO GRN
TAF EGUB 181935Z 1821/1915 VRB03KT 9999 FEW010 BKN040 
     TEMPO 1821/1911 7000 RA SCT010 
     PROB40 
     TEMPO 1901/1910 4000 +SHRA BKN004 BKN050CB 
     TEMPO 1911/1915 BKN015
       
EGKB 181920Z 06006KT 9000 NSC 15/14 Q1011
TAF EGKB 181655Z 1818/1823 08005KT 9999 FEW040 
     PROB40 
     TEMPO 1818/1823 4000 RA SHRA
       
EGBB 181920Z 18002KT 9999 FEW006 SCT042 15/14 Q1011
TAF EGBB 181656Z 1818/1918 VRB03KT 9999 SCT040 
     PROB40 
     TEMPO 1818/1902 7000 RA BKN012 
     TEMPO 1902/1915 6000 RA BKN008 
     PROB30 
     TEMPO 1905/1912 4000 +RA BKN004 
     BECMG 1910/1913 29010KT 
     PROB30 
     TEMPO 1915/1918 7000 SHRA BKN014
       
EGNH 181920Z 31008KT 9999 BKN035 16/08 Q1011
TAF EGNH 181659Z 1818/1820 30010KT 9999 SCT025 
     BECMG 1818/1820 VRB03KT
       
EGDM 181850Z AUTO 07004KT 9999 -RA FEW050/// BKN090/// 16/14 Q1011
TAF EGDM 181340Z 1815/1818 06004KT 9999 FEW013 SCT040 
     PROB30 
     TEMPO 1815/1818 6000 RA SCT012
       
EGHH 181920Z VRB03KT 9000 -RA FEW012 16/15 Q1010
TAF EGHH 181701Z 1818/1903 36004KT 9999 FEW010 SCT040 
     PROB40 
     TEMPO 1818/1821 7000 RA BKN010 
     TEMPO 1821/1903 6000 RA BKN010 
     PROB30 
     TEMPO 1821/1903 3000 +RA +SHRA BKN004
       
EGGD 181920Z AUTO VRB03KT 9999 -RA NCD 14/13 Q1011
TAF EGGD 181700Z 1818/1918 03004KT 9999 SCT030 
     PROB30 
     TEMPO 1818/1901 7000 RA BKN014 
     TEMPO 1901/1915 7000 RA BKN009 
     PROB30 
     TEMPO 1901/1910 0800 +RADZ FG BKN001 
     BECMG 1912/1915 26012KT 
     TEMPO 1915/1918 27015G25KT
       
EGVN 181920Z 06004KT 9999 FEW016 BKN060 BKN100 15/14 Q1011 NOSIG RMK BLU BLU
TAF EGVN 181926Z 1821/1921 03003KT 9999 SCT025 
     PROB30 
     TEMPO 1821/1824 BKN010 
     TEMPO 1900/1910 3000 SHRA BKN008 BKN050CB 
     PROB30 
     TEMPO 1901/1910 2000 +SHRA BKN003 
     TEMPO 1910/1914 5000 SHRA BKN012 
     PROB40 
     TEMPO 1914/1917 SCT020
       
EGCK 181920Z AUTO VRB03KT 9999 FEW024/// 14/10 Q1011
TAF EGCK 181659Z 1818/1903 24005KT 9999 SCT025 
     PROB30 
     TEMPO 1821/1903 8000 RA
       
EGSC 181750Z VRB01KT 8000 RA FEW005 SCT045 16/15 Q1012
TAF EGSC 181401Z 1815/1819 17005KT 9999 SCT040 
     TEMPO 1815/1819 7000 RA SHRA BKN014 
     PROB30 
     TEMPO 1815/1819 3000 +SHRA
       
EGEC 181620Z 15009KT 9999 FEW010 BKN044 13/12 Q1010
TAF EGEC 181402Z 1815/1817 29006KT 9999 SCT025 
     PROB30 
     TEMPO 1815/1817 7000 SHRA BKN014
       
EGFF 181920Z AUTO 06003KT 9999 OVC018 15/13 Q1011
TAF EGFF 181656Z 1818/1918 VRB03KT 9999 SCT030 
     PROB30 
     TEMPO 1818/1823 7000 RA BKN014 
     TEMPO 1823/1913 6000 RA BKN008 
     PROB30 
     TEMPO 1900/1907 4000 +RA BKN004 
     BECMG 1907/1910 28012KT 
     PROB30 
     TEMPO 1913/1916 7000 SHRA BKN014 
     PROB30 
     TEMPO 1913/1918 28015G25KT
       
EGLC 181920Z AUTO 05004KT 9999 NCD 18/15 Q1011
TAF EGLC 181655Z 1818/1821 08005KT 9999 FEW040 
     PROB40 
     TEMPO 1818/1821 4000 RA SHRA
       
EGAC 181920Z AUTO 15005KT 120V190 9999 -RA BKN041/// 14/12 Q1010
TAF EGAC 181656Z 1818/1821 25005KT 9999 FEW020 SCT025 
     PROB30 
     TEMPO 1818/1821 7000 SHRA
       
EGXC 181850Z 12003KT 9999 -RA FEW030 SCT060 OVC080 16/14 Q1012 RMK BLU
TAF EGXC 181624Z 1818/1912 15006KT 9999 BKN040 
     PROB40 
     TEMPO 1900/1910 BKN005 
     PROB30 
     TEMPO 1905/1911 4000 RA 
     TEMPO 1910/1912 BKN012
       
EGWC 181550Z 18006KT 9999 -RA FEW030 BKN100 18/12 Q1012 RMK BLU
TAF EGWC 181341Z 1815/1818 19006KT 9999 SCT025 
     PROB30 
     TEMPO 1815/1818 7000 SHRA SCT020
       
TAF AMD EGTC 181036Z 1810/1818 20009KT 9999 SCT040 
     TEMPO 1810/1815 7000 RA SHRA BKN014 
     PROB30 
     TEMPO 1810/1814 3000 +RA BKN007
       
EGYD 181850Z AUTO 14003KT 9999 // OVC070/// 15/14 Q1012
TAF EGYD 181329Z 1815/1818 19008KT 9999 SCT030
       
EGDR 181925Z 06009KT 9999 -RA FEW010 SCT018 BKN032 13/13 Q1010 WHT TEMPO 6000 -RA SCT005 RMK WHT YLO1
TAF EGDR 181356Z 1815/1824 06010KT 9999 FEW007 BKN015 
     BECMG 1815/1817 9999 -RA SCT007 
     TEMPO 1817/1824 4000 RA BR SCT003 BKN005 OVC020 
     PROB30 
     TEMPO 1819/1824 2000 RA BR FEW001 SCT002
       
EGPN 181920Z 27008KT 9999 SCT030 16/11 Q1009
TAF EGPN 181657Z 1818/1820 25014KT 9999 FEW040
       
EGPD 181920Z AUTO 21013KT 9999 NCD 16/08 Q1008 NOSIG
TAF EGPD 181655Z 1818/1918 23009KT 9999 FEW030 
     BECMG 1909/1912 16012KT 
     TEMPO 1909/1918 8000 -SHRA 
     PROB30 
     TEMPO 1912/1918 SHRA
       
EGNX 181920Z 17006KT 9999 -RA FEW035 SCT044 14/14 Q1011 RERA
TAF EGNX 181656Z 1818/1918 15005KT 9999 SCT040 
     PROB40 
     TEMPO 1818/1823 6000 RA BKN010 
     PROB30 
     TEMPO 1823/1906 3000 RA BR BKN003 
     TEMPO 1906/1916 6000 RA BKN007 
     PROB40 
     TEMPO 1906/1914 3000 +RA +SHRA BKN004 
     BECMG 1912/1915 28010KT 
     PROB30 
     TEMPO 1916/1918 7000 SHRA BKN012
       
EGPH 181920Z 28004KT 240V320 9999 FEW047 15/10 Q1010
TAF EGPH 181655Z 1818/1918 24009KT 9999 FEW030 
     TEMPO 1909/1918 8000 -SHRA 
     PROB30 
     TEMPO 1912/1918 SHRA
       
EGTE 181920Z 35002KT 8000 -RA FEW020 15/15 Q1011
TAF EGTE 181701Z 1818/1903 VRB03KT 9999 FEW010 SCT040 
     TEMPO 1818/1903 7000 RA BKN010 
     PROB30 
     TEMPO 1823/1903 3000 BR BKN003
       
EGVA 181931Z AUTO M M M SCT011 BKN065 15/14 A2986 RMK AO2 DZB10E12RAB12E22DZB22E26 SLP115 RVRNO $
EGLF 181920Z AUTO 35005KT 7000 FEW014/// 16/15 Q1011
TAF AMD EGLF 181837Z 1818/1823 05005KT 9999 FEW040 
     TEMPO 1818/1823 4000 RA SHRA BKN006
       
EGKK 181920Z 02006KT 350V100 CAVOK 17/15 Q1011
TAF AMD EGKK 181933Z 1819/1924 VRB03KT 9999 FEW040 
     TEMPO 1819/1916 4000 RA SHRA 
     PROB30 
     TEMPO 1902/1912 VRB15G25KT +SHRA TSRA BKN010 BKN045CB 
     BECMG 1912/1915 27012KT
       
EGPF 181920Z AUTO 27005KT 9999 NCD 13/11 Q1010
TAF EGPF 181655Z 1818/1918 23009KT 9999 SCT030 
     PROB30 
     TEMPO 1818/1821 7000 SHRA 
     PROB40 
     TEMPO 1822/1908 BKN010 
     TEMPO 1909/1918 6000 SHRA
       
EGBJ 181720Z 00000KT 9999 -RA FEW009 15/14 Q1011
TAF EGBJ 181401Z 1815/1819 VRB03KT 9999 SCT030 
     TEMPO 1815/1819 6000 SHRA BKN014
       
EGNR 181920Z 31005KT 6000 RA SCT026 BKN036 14/11 Q1012
TAF EGNR 181659Z 1818/1820 33003KT 9999 SCT025 
     PROB30 
     TEMPO 1818/1820 8000 SHRA
       
EGLL 181920Z AUTO 04004KT 360V080 9000 FEW020 17/16 Q1011 TEMPO SHRA
TAF EGLL 181701Z 1818/1924 06005KT 9999 SCT045 
     TEMPO 1818/1916 6000 RA SHRA 
     PROB30 
     TEMPO 1818/1824 BKN010 
     PROB30 
     TEMPO 1900/1911 3000 +SHRA TSRA BKN009 BKN045CB 
     PROB30 
     TEMPO 1911/1916 BKN012 
     BECMG 1912/1915 28010KT
       
EGNJ 181920Z 17007KT 9999 -SHRA FEW030 16/14 Q1012 RESHRA
TAF EGNJ 181659Z 1818/1903 17006KT 9999 SCT030 
     PROB30 
     TEMPO 1818/1903 8000 RA SHRA 
     PROB30 
     TEMPO 1821/1903 BKN008
       
EGPE 181920Z 21013KT 9999 FEW018 SCT033 BKN047 14/09 Q1007
TAF EGPE 181657Z 1818/1903 22014KT 9999 SCT030 
     PROB40 
     TEMPO 1818/1820 8000 -SHRA
       
EGPI 181920Z AUTO 15007KT 3900 RA BKN023/// SCT035/// 12/11 Q1010
TAF EGPI 181402Z 1815/1818 25009KT 9999 SCT025 
     PROB30 
     TEMPO 1815/1818 7000 SHRA BKN014
       
EGTK 181850Z 34003KT 9999 FEW025 15/14 Q1011
TAF EGTK 181701Z 1818/1822 VRB04KT 9999 SCT025 
     PROB40 
     TEMPO 1818/1822 8000 RA BKN014
       
EGQK 181850Z AUTO 23013KT 9999 OVC048/// 15/09 Q1007
EGPA 181920Z AUTO 23007KT 9999 FEW042/// 12/10 Q1006
TAF EGPA 181657Z 1818/1903 24014KT 9999 SCT030
       
EGUL 181856Z 00000KT 9999 BKN060 OVC090 16/16 A2985 RMK AO2A RAE18DZB18E24 SLP111 P0004 T01610159 $
TAF AMD EGUL 181824Z 1818/1918 VRB06KT 9000 -SHRA BKN020 QNH2985INS 
     TEMPO 1818/1823 BKN015 
     BECMG 1823/1824 VRB06KT 8000 BR BKN040 QNH2975INS 
     BECMG 1905/1906 VRB06KT 9000 -TSRA BKN050CB QNH2967INS 
     BECMG 1908/1909 VRB06KT 9000 -SHRA OVC015 QNH2964INS 
     BECMG 1913/1914 30010G15KT 9999 NSW BKN015 QNH2965INS TX20/1915Z TN12/1903Z
       
EGNM 181920Z VRB01KT 9999 FEW033 17/10 Q1011
TAF EGNM 181700Z 1818/1918 30004KT 9999 SCT030 
     PROB30 
     TEMPO 1821/1904 7000 RA BKN014 
     TEMPO 1904/1916 7000 RA BKN009 
     PROB40 
     TEMPO 1904/1912 2000 +RADZ BR BKN003
       
EGXE 181850Z AUTO 32004KT 9999 FEW050/// BKN160/// 17/10 Q1011
TAF EGXE 181319Z 1815/1818 23008KT 9999 SCT048
       
EGQL 181850Z 26010KT CAVOK 16/10 Q1009 BLU
TAF EGQL 181912Z 1821/1906 23008KT 9999 FEW048
       
EGXU 181850Z AUTO 27002KT 9999 // SCT060/// 18/11 Q1011
TAF EGXU 181320Z 1815/1818 24009KT 9999 SCT040
       
EGGP 181920Z 34006KT 9999 VCSH FEW032 SCT048 17/11 Q1011
TAF EGGP 181658Z 1818/1918 32005KT 9999 SCT030 
     PROB30 
     TEMPO 1818/1823 8000 SHRA 
     TEMPO 1823/1911 6000 RA 
     PROB30 
     TEMPO 1903/1909 BKN010
       
EGAE 181920Z 24006KT 9999 FEW016 SCT028 15/11 Q1010
TAF EGAE 181656Z 1818/1821 VRB05KT 9999 SCT030
       
EGQS 181850Z 24016KT CAVOK 16/08 Q1007 RMK BLU
TAF EGQS 181915Z 1821/1915 23012KT 9999 SCT048 
     PROB30 
     TEMPO 1909/1915 7000 SHRA SCT024
       
EGGW 181920Z AUTO VRB02KT 4500 -RA SCT037/// //////CB 15/14 Q1011 RERA
TAF AMD EGGW 181759Z 1818/1918 05004KT 9999 SCT030 
     TEMPO 1818/1916 7000 RA SHRA 
     PROB40 
     TEMPO 1818/1820 4000 +SHRA BKN008 
     PROB30 1900/1904 1200 BR BKN001 
     PROB40 
     TEMPO 1904/1911 2500 +SHRA TSRA BKN003 BKN048CB 
     TEMPO 1908/1916 BKN010 
     BECMG 1912/1915 30010KT
       
EGMD 181920Z AUTO 07012KT 9999 NCD 16/13 Q1010
TAF EGMD 181655Z 1818/1903 03007KT 9999 FEW025 
     PROB30 
     TEMPO 1818/1903 4000 RA SHRA 
     PROB30 
     TEMPO 1900/1903 +SHRA TSRA BKN009 BKN040CB
       
EGCC 181920Z VRB02KT 9999 8000E -SHRA BKN028TCU 15/13 Q1011 NOSIG
TAF EGCC 181658Z 1818/1924 30005KT 9999 SCT030 
     PROB30 
     TEMPO 1818/1824 8000 SHRA 
     TEMPO 1900/1913 6000 RA BKN012 
     PROB40 
     TEMPO 1900/1912 4000 RADZ BR BKN006
       
EGYM 181850Z 03004KT 9999 -RA FEW030 SCT035 BKN060 16/15 Q1011 BLU
TAF EGYM 181350Z 1815/1818 21005KT 9999 FEW030 
     PROB40 
     TEMPO 1815/1818 7000 -SHRA 
     PROB30 
     TEMPO 1815/1818 4000 SHRA SCT020 BKN040
       
EGUN 181856Z 05004KT 9999 BKN060 OVC090 16/16 A2985 RMK AO2A RAE15DZB15E16 SLP111 P0008 T01620162 .
TAF AMD EGUN 181806Z 1818/1918 VRB06KT 8000 RA OVC050 QNH2987INS 
     TEMPO 1818/1824 4000 +RA BR 
     BECMG 1823/1824 VRB06KT 8000 BR BKN050 QNH2975INS 
     BECMG 1904/1905 VRB06KT 8000 -SHRA BKN010 QNH2970INS TX16/1818Z TN12/1904Z
       
EGNT 181920Z 26005KT 9999 FEW042 16/10 Q1010
TAF EGNT 181658Z 1818/1918 24005KT 9999 SCT035 
     PROB40 
     TEMPO 1900/1914 6000 RA
       
EGWU 181920Z 05005KT 9999 FEW012 BKN090 16/15 Q1011 TEMPO 7000 RA RMK BLU TEMPO WHT
TAF EGWU 181930Z 1821/1915 05005KT 9999 FEW015 SCT045 
     PROB40 
     TEMPO 1821/1913 7000 SHRA 
     PROB30 
     TEMPO 1822/1908 4000 TSRA SCT010 BKN050CB 
     PROB40 
     TEMPO 1908/1914 SCT012
       
EGSH 181920Z 02003KT 9000 FEW040 15/14 Q1012 NOSIG
TAF EGSH 181701Z 1818/1824 11005KT 9999 SCT035 
     TEMPO 1818/1824 7000 RA 
     PROB30 
     TEMPO 1818/1824 4000 +RA BKN012
       
TAF EGEO 181054Z 1812/1817 23015G25KT 9999 FEW014 SCT024 
     PROB30 
     TEMPO 1812/1817 5000 SHRA BKN014
       
EGVO 181920Z 34006KT 4000 BR FEW003 SCT040 BKN080 15/14 Q1011 NOSIG RMK GRN GRN
TAF EGVO 181919Z 1821/1909 05005KT 4000 BR FEW008 
     TEMPO 1821/1909 SHRA BKN008 
     PROB30 1821/1823 SCT004 
     PROB30 
     TEMPO 1823/1909 3000 TSRA SCT003 BKN040CB 
     BECMG 1906/1909 6000 BR
       
EGPK 181920Z 26004KT 230V300 9999 FEW020 SCT040 13/10 Q1011
TAF EGPK 181655Z 1818/1918 25009KT 9999 SCT030 
     PROB30 
     TEMPO 1818/1824 7000 SHRA 
     TEMPO 1909/1912 6000 SHRA
       
EGXP 181850Z AUTO 17004KT 9999 // OVC050/// 15/14 Q1011
TAF EGXP 181341Z 1815/1818 20008KT 9999 SCT030
       
EGPM 181920Z AUTO 22013KT 9999 BKN012/// 11/09 Q1005
TAF AMD EGPM 181457Z 1815/1820 20018G28KT 9999 FEW012 SCT020 
     TEMPO 1815/1820 5000 RA BKN010 
     PROB40 
     TEMPO 1815/1820 4000 RADZ BKN007
       
EGOS 181850Z AUTO 16006KT 9999 -RA OVC080/// 15/13 Q1011
TAF EGOS 181341Z 1815/1818 19006KT 9999 FEW023 BKN045 
     PROB30 
     TEMPO 1815/1818 7000 SHRA SCT020
       
TAF EGSY 181100Z 1812/1816 11005KT 9999 SCT010 
     PROB40 
     TEMPO 1812/1816 7000 SHRA BKN014
       
EGKA 181850Z 36019KT 9999 FEW045 17/16 Q1010
TAF AMD EGKA 181540Z 1815/1819 09007KT 9999 FEW040 
     PROB40 
     TEMPO 1815/1819 35010KT 4000 RA SHRA
       
EGHI 181920Z 03004KT 9999 FEW034 15/12 Q1010
TAF EGHI 181701Z 1818/1822 VRB03KT 9999 FEW010 SCT040 
     PROB40 
     TEMPO 1818/1821 7000 RA BKN010 
     TEMPO 1821/1822 6000 RA BKN010 
     PROB30 
     TEMPO 1821/1822 3000 +RA +SHRA BKN005
       
EGMC 181850Z 06005KT 9999 FEW018 16/13 Q1011
TAF EGMC 181655Z 1818/1903 04004KT 9999 FEW040 
     TEMPO 1818/1903 5000 RA SHRA 
     PROB40 
     TEMPO 1902/1903 3000 +SHRA TSRA BKN009 BKN045CB
       
EGSS 181920Z AUTO VRB03KT 5000 -RA FEW037/// SCT045/// //////TCU 16/15 Q1011
TAF EGSS 181700Z 1818/1924 03004KT 9999 SCT030 
     TEMPO 1818/1916 7000 RA SHRA 
     PROB30 
     TEMPO 1904/1912 2500 +SHRA TSRA BKN004 BKN048CB 
     TEMPO 1908/1916 BKN012 
     BECMG 1912/1916 29010KT 
     BECMG 1918/1921 23005KT
       
EGPO 181920Z 20009KT 9999 -RADZ FEW007 SCT011 BKN017 11/10 Q1005
TAF EGPO 181657Z 1818/1903 21012KT 9999 FEW012 SCT030 
     TEMPO 1818/1903 5000 RA BKN012 
     PROB40 
     TEMPO 1818/1903 3000 RADZ BKN005
       
EGPB 181920Z AUTO 23011KT 9999 FEW031/// 11/09 Q1006
TAF EGPB 181657Z 1818/1903 22014KT 9999 FEW014 
     TEMPO 1818/1901 BKN014 
     PROB40 
     TEMPO 1823/1901 5000 -RADZ
       
EGNV 181920Z 25004KT 220V280 9999 FEW030 17/10 Q1011
TAF EGNV 181659Z 1818/1821 25004KT 9999 SCT025
       
EGPU 181920Z AUTO 21011KT 100V170 9999 FEW021/// 12/11 Q1008 RERA
TAF EGPU 181359Z 1815/1818 24016KT 9999 FEW011 BKN015 
     TEMPO 1815/1818 5000 SHRA BKN011 
     PROB40 
     TEMPO 1815/1818 BKN009
       
EGXZ 181850Z AUTO 03003KT 9999 FEW060/// BKN140/// 17/11 Q1011
TAF EGXZ 181320Z 1815/1818 24009KT 9999 SCT040
       
EGOV 181850Z 20004KT 9999 FEW030 BKN060 BKN250 14/09 Q1011 BLU
TAF EGOV 181317Z 1815/1819 20008KT 9999 FEW005
       
EGXW 181920Z 14004KT 9999 RA FEW042 OVC080 15/14 Q1012 NOSIG RMK BLU BLU
TAF EGXW 181645Z 1818/1912 17008KT 9999 SCT030 
     PROB40 
     TEMPO 1900/1910 BKN005 
     PROB30 
     TEMPO 1900/1906 7000 -RA 
     PROB30 
     TEMPO 1906/1910 4000 RA 
     PROB40 
     TEMPO 1910/1912 BKN010
       
EGNO 181820Z 32006KT 260V350 9999 FEW045 17/11 Q1011
TAF EGNO 181402Z 1815/1818 30006KT 9999 SCT025
       
EGUW 181936Z 12007KT 9999 FEW040CB OVC080 14/13 Q1011 NOSIG RMK BLU BLU
TAF AMD EGUW 181921Z 1818/1902 06003KT 9999 FEW045 
     TEMPO 1818/1820 4000 +SHRA BKN045CB 
     PROB30 
     TEMPO 1823/1902 3000 +SHRA TSRA SCT012 BKN045CB
       
EGPC 181920Z 22006KT 190V250 9999 VCSH FEW012 SCT039 13/11 Q1006
TAF EGPC 181657Z 1818/1903 23012KT 9999 SCT030
       
EGXT 181850Z AUTO 36003KT 9999 -RA OVC060/// 16/14 Q1011
TAF EGXT 181400Z 1815/1824 17005KT 9999 SCT030
       
EGOW 181620Z 32006KT 9999 FEW030 18/10 Q1012 RMK BLU
TAF EGOW 181400Z 1815/1818 29008KT 9999 FEW025
       
EGDY 181850Z 35005KT 9999 FEW010 BKN018 16/14 Q1011 TEMPO 9999 FEW020 RMK WHT TEMPO BLU
TAF EGDY 181636Z 1818/1903 04008KT 9999 FEW012 BKN070 
     TEMPO 1818/1822 6000 -RA FEW012 SCT020 
     BECMG 1820/1824 VRB03KT 
     PROB30 
     TEMPO 1822/1903 VRB10G25KT 3500 +TSRA BKN030CB